createdAt,value
2022-08-25T00:01:32.308Z,20.67
2022-08-25T00:04:07.596Z,16.63
2022-08-25T00:06:43.881Z,19.43
2022-08-25T00:09:19.118Z,19.47
2022-08-25T00:11:54.615Z,18.87
2022-08-25T00:14:30.340Z,23.83
2022-08-25T00:17:06.417Z,22.80
2022-08-25T00:19:41.782Z,18.53
2022-08-25T00:22:14.748Z,20.93
2022-08-25T00:24:48.192Z,22.13
2022-08-25T00:27:24.118Z,18.60
2022-08-25T00:29:57.662Z,25.37
2022-08-25T00:32:30.938Z,25.53
2022-08-25T00:35:05.240Z,19.47
2022-08-25T00:37:39.878Z,18.83
2022-08-25T00:40:14.352Z,22.50
2022-08-25T00:42:50.084Z,22.17
2022-08-25T00:45:25.825Z,20.67
2022-08-25T00:48:00.104Z,21.33
2022-08-25T00:50:35.743Z,23.58
2022-08-25T00:53:12.013Z,20.70
2022-08-25T00:55:46.459Z,22.02
2022-08-25T00:58:26.425Z,22.10
2022-08-25T01:01:02.315Z,19.77
2022-08-25T01:03:37.132Z,24.20
2022-08-25T01:06:11.706Z,24.88
2022-08-25T01:08:48.913Z,18.15
2022-08-25T01:11:23.563Z,19.00
2022-08-25T01:14:05.220Z,25.38
2022-08-25T01:16:40.059Z,19.55
2022-08-25T01:19:15.209Z,19.80
2022-08-25T01:21:55.742Z,17.67
2022-08-25T01:24:36.350Z,17.15
2022-08-25T01:27:10.937Z,18.13
2022-08-25T01:29:56.707Z,18.55
2022-08-25T01:32:30.883Z,20.27
2022-08-25T01:35:06.400Z,18.92
2022-08-25T01:37:42.588Z,18.52
2022-08-25T01:40:19.554Z,15.98
2022-08-25T01:43:02.734Z,18.70
2022-08-25T01:45:36.314Z,17.73
2022-08-25T01:48:11.791Z,17.13
2022-08-25T01:50:48.600Z,17.40
2022-08-25T01:53:42.289Z,16.48
2022-08-25T01:56:17.701Z,14.95
2022-08-25T01:58:53.230Z,14.85
2022-08-25T02:01:28.511Z,15.15
2022-08-25T02:04:02.538Z,12.02
2022-08-25T02:06:38.749Z,15.30
2022-08-25T02:09:19.054Z,18.42
2022-08-25T02:11:53.033Z,14.48
2022-08-25T02:14:27.732Z,13.52
2022-08-25T02:17:01.487Z,15.60
2022-08-25T02:19:35.425Z,18.25
2022-08-25T02:22:09.976Z,15.70
2022-08-25T02:24:45.115Z,23.05
2022-08-25T02:27:18.802Z,18.55
2022-08-25T02:29:52.446Z,16.30
2022-08-25T02:32:25.936Z,19.92
2022-08-25T02:34:59.517Z,21.45
2022-08-25T02:37:33.168Z,18.13
2022-08-25T02:40:16.151Z,17.58
2022-08-25T02:42:49.773Z,17.05
2022-08-25T02:45:23.631Z,21.55
2022-08-25T02:47:57.930Z,17.92
2022-08-25T02:50:33.460Z,19.55
2022-08-25T02:53:06.965Z,18.48
2022-08-25T02:55:43.395Z,17.60
2022-08-25T02:58:17.469Z,14.95
2022-08-25T03:00:54.499Z,17.10
2022-08-25T03:03:28.751Z,20.92
2022-08-25T03:06:02.825Z,14.68
2022-08-25T03:08:36.263Z,15.90
2022-08-25T03:11:12.910Z,14.55
2022-08-25T03:13:46.754Z,19.23
2022-08-25T03:16:23.986Z,12.90
2022-08-25T03:19:03.034Z,12.85
2022-08-25T03:21:41.152Z,17.58
2022-08-25T03:24:15.386Z,18.00
2022-08-25T03:26:55.938Z,17.25
2022-08-25T03:29:30.210Z,18.63
2022-08-25T03:32:05.422Z,18.85
2022-08-25T03:34:38.831Z,20.85
2022-08-25T03:37:12.824Z,16.58
2022-08-25T03:39:46.627Z,20.15
2022-08-25T03:42:22.201Z,18.17
2022-08-25T03:44:56.997Z,17.90
2022-08-25T03:47:30.931Z,14.75
2022-08-25T03:50:04.320Z,15.52
2022-08-25T03:52:42.411Z,20.30
2022-08-25T03:55:21.214Z,14.90
2022-08-25T03:57:57.942Z,16.77
2022-08-25T04:00:31.369Z,15.48
2022-08-25T04:03:05.308Z,16.73
2022-08-25T04:05:41.650Z,15.55
2022-08-25T04:08:15.673Z,13.35
2022-08-25T04:10:53.356Z,13.93
2022-08-25T04:13:29.331Z,15.90
2022-08-25T04:16:03.560Z,17.15
2022-08-25T04:18:37.063Z,12.65
2022-08-25T04:21:12.311Z,13.77
2022-08-25T04:23:47.996Z,15.52
2022-08-25T04:26:23.707Z,14.00
2022-08-25T04:29:01.277Z,13.60
2022-08-25T04:31:35.925Z,15.05
2022-08-25T04:34:29.490Z,13.27
2022-08-25T04:37:06.745Z,15.80
2022-08-25T04:39:40.767Z,14.45
2022-08-25T04:42:14.650Z,11.90
2022-08-25T04:44:51.255Z,13.32
2022-08-25T04:47:25.228Z,10.63
2022-08-25T04:50:02.830Z,12.82
2022-08-25T04:52:36.666Z,11.90
2022-08-25T04:55:10.772Z,15.10
2022-08-25T04:57:43.981Z,15.05
2022-08-25T05:00:21.040Z,11.70
2022-08-25T05:02:55.007Z,13.88
2022-08-25T05:05:29.181Z,11.07
2022-08-25T05:08:03.991Z,11.98
2022-08-25T05:10:38.039Z,15.80
2022-08-25T05:13:12.489Z,12.43
2022-08-25T05:15:55.237Z,13.27
2022-08-25T05:18:31.045Z,14.45
2022-08-25T05:21:08.854Z,12.13
2022-08-25T05:23:43.362Z,12.10
2022-08-25T05:26:20.379Z,14.10
2022-08-25T05:28:56.322Z,14.60
2022-08-25T05:31:33.393Z,12.52
2022-08-25T05:34:11.562Z,12.73
2022-08-25T05:36:45.280Z,13.52
2022-08-25T05:39:19.582Z,12.70
2022-08-25T05:41:53.296Z,13.98
2022-08-25T05:44:27.193Z,11.82
2022-08-25T05:47:03.196Z,12.65
2022-08-25T05:49:36.871Z,13.88
2022-08-25T05:52:12.511Z,11.82
2022-08-25T05:54:48.948Z,14.23
2022-08-25T05:57:23.052Z,11.32
2022-08-25T05:59:58.216Z,12.25
2022-08-25T06:02:47.937Z,19.83
2022-08-25T06:05:24.643Z,15.40
2022-08-25T06:07:58.026Z,16.35
2022-08-25T06:10:33.712Z,13.13
2022-08-25T06:13:07.662Z,15.75
2022-08-25T06:15:42.139Z,15.52
2022-08-25T06:18:20.045Z,14.75
2022-08-25T06:20:54.760Z,13.65
2022-08-25T06:23:41.435Z,13.98
2022-08-25T06:26:19.049Z,13.63
2022-08-25T06:28:55.475Z,13.82
2022-08-25T06:31:30.882Z,15.85
2022-08-25T06:34:07.291Z,13.55
2022-08-25T06:36:41.740Z,15.00
2022-08-25T06:39:15.772Z,16.88
2022-08-25T06:41:49.771Z,14.82
2022-08-25T06:44:25.030Z,13.13
2022-08-25T06:46:59.809Z,17.88
2022-08-25T06:49:36.342Z,17.40
2022-08-25T06:52:10.300Z,16.35
2022-08-25T06:54:44.543Z,16.58
2022-08-25T06:57:23.526Z,13.20
2022-08-25T07:00:00.953Z,15.43
2022-08-25T07:02:37.732Z,13.32
2022-08-25T07:05:27.021Z,14.30
2022-08-25T07:08:07.779Z,17.90
2022-08-25T07:10:41.563Z,17.75
2022-08-25T07:13:21.314Z,17.10
2022-08-25T07:16:00.755Z,15.75
2022-08-25T07:18:35.329Z,20.40
2022-08-25T07:21:16.086Z,16.38
2022-08-25T07:23:49.817Z,19.05
2022-08-25T07:26:41.104Z,18.15
2022-08-25T07:29:16.140Z,14.68
2022-08-25T07:31:55.400Z,16.35
2022-08-25T07:34:45.245Z,13.30
2022-08-25T07:37:47.968Z,18.13
2022-08-25T07:40:24.804Z,13.18
2022-08-25T07:43:05.294Z,15.13
2022-08-25T07:45:49.019Z,11.75
2022-08-25T07:48:23.775Z,19.27
2022-08-25T07:50:57.766Z,15.20
2022-08-25T07:53:34.028Z,11.75
2022-08-25T07:56:07.553Z,12.35
2022-08-25T07:58:42.448Z,12.20
2022-08-25T08:01:20.388Z,12.40
2022-08-25T08:03:54.759Z,14.52
2022-08-25T08:06:29.563Z,14.80
2022-08-25T08:09:04.797Z,13.40
2022-08-25T08:11:53.961Z,10.95
2022-08-25T08:14:27.725Z,11.80
2022-08-25T08:17:02.471Z,11.48
2022-08-25T08:19:37.102Z,13.65
2022-08-25T08:22:12.975Z,11.13
2022-08-25T08:24:54.158Z,13.55
2022-08-25T08:27:29.062Z,10.75
2022-08-25T08:30:02.429Z,11.15
2022-08-25T08:32:53.249Z,11.70
2022-08-25T08:35:30.302Z,11.68
2022-08-25T08:38:03.857Z,15.05
2022-08-25T08:41:08.355Z,13.77
2022-08-25T08:43:42.883Z,14.40
2022-08-25T08:46:16.744Z,13.38
2022-08-25T08:49:06.143Z,12.07
2022-08-25T08:51:49.027Z,8.95
2022-08-25T08:54:34.171Z,10.55
2022-08-25T08:57:13.694Z,11.75
2022-08-25T08:59:53.617Z,13.45
2022-08-25T09:02:39.208Z,8.73
2022-08-25T09:05:26.482Z,11.65
2022-08-25T09:08:03.574Z,10.85
2022-08-25T09:10:44.776Z,10.23
2022-08-25T09:13:31.361Z,9.48
2022-08-25T09:16:33.812Z,10.90
2022-08-25T09:19:23.549Z,9.55
2022-08-25T09:22:35.291Z,8.77
2022-08-25T09:25:08.799Z,7.65
2022-08-25T09:27:50.343Z,8.23
2022-08-25T09:30:27.626Z,12.48
2022-08-25T09:33:05.734Z,10.25
2022-08-25T09:35:40.414Z,11.77
2022-08-25T09:38:15.725Z,8.15
2022-08-25T09:40:52.370Z,10.77
2022-08-25T09:43:33.284Z,7.68
2022-08-25T09:46:15.369Z,7.75
2022-08-25T09:48:55.840Z,7.80
2022-08-25T09:51:38.215Z,11.10
2022-08-25T09:54:34.061Z,7.70
2022-08-25T09:57:34.002Z,7.22
2022-08-25T10:00:23.171Z,9.05
2022-08-25T10:03:17.048Z,10.95
2022-08-25T10:06:12.837Z,7.05
2022-08-25T10:08:59.963Z,7.38
2022-08-25T10:11:51.932Z,9.98
2022-08-25T10:14:38.189Z,8.20
2022-08-25T10:17:27.780Z,9.48
2022-08-25T10:20:21.221Z,7.90
2022-08-25T10:22:55.751Z,6.90
2022-08-25T10:25:38.022Z,7.75
2022-08-25T10:28:19.745Z,8.85
2022-08-25T10:31:09.733Z,8.95
2022-08-25T10:33:55.989Z,8.30
2022-08-25T10:36:41.214Z,6.47
2022-08-25T10:39:36.467Z,9.05
2022-08-25T10:42:26.194Z,8.73
2022-08-25T10:45:30.759Z,6.47
2022-08-25T10:48:22.561Z,7.93
2022-08-25T10:51:04.626Z,7.57
2022-08-25T10:53:52.318Z,10.40
2022-08-25T10:56:40.835Z,8.50
2022-08-25T10:59:33.307Z,6.17
2022-08-25T11:02:41.379Z,7.17
2022-08-25T11:05:24.694Z,6.00
2022-08-25T11:08:07.928Z,5.10
2022-08-25T11:10:48.873Z,7.67
2022-08-25T11:13:29.744Z,6.37
2022-08-25T11:16:19.900Z,4.67
2022-08-25T11:19:02.421Z,4.97
2022-08-25T11:21:51.619Z,5.90
2022-08-25T11:24:59.178Z,4.33
2022-08-25T11:27:41.017Z,5.17
2022-08-25T11:30:18.834Z,5.00
2022-08-25T11:32:54.669Z,4.93
2022-08-25T11:35:35.144Z,4.57
2022-08-25T11:38:29.404Z,8.03
2022-08-25T11:41:31.295Z,7.53
2022-08-25T11:44:22.619Z,7.40
2022-08-25T11:47:21.332Z,4.97
2022-08-25T11:50:02.276Z,6.00
2022-08-25T11:52:51.388Z,4.83
2022-08-25T11:55:31.483Z,5.07
2022-08-25T11:58:38.431Z,6.43
2022-08-25T12:01:36.775Z,6.17
2022-08-25T12:04:35.591Z,9.83
2022-08-25T12:07:28.185Z,5.40
2022-08-25T12:14:57.989Z,8.87
2022-08-25T12:17:43.244Z,3.73
2022-08-25T12:20:17.059Z,5.67
2022-08-25T12:23:01.444Z,6.90
2022-08-25T12:26:04.130Z,2.93
2022-08-25T12:28:48.256Z,5.77
2022-08-25T12:31:48.487Z,3.43
2022-08-25T12:34:41.463Z,5.60
2022-08-25T12:37:19.988Z,4.00
2022-08-25T12:40:02.964Z,3.53
2022-08-25T12:42:40.204Z,4.70
2022-08-25T12:45:18.343Z,8.13
2022-08-25T12:47:53.211Z,4.90
2022-08-25T12:50:45.120Z,2.90
2022-08-25T12:53:28.489Z,4.87
2022-08-25T12:56:09.636Z,4.63
2022-08-25T12:59:07.627Z,9.10
2022-08-25T13:02:07.182Z,2.83
2022-08-25T13:05:10.069Z,3.97
2022-08-25T13:08:15.152Z,6.50
2022-08-25T13:10:55.624Z,7.80
2022-08-25T13:13:44.295Z,3.67
2022-08-25T13:16:28.929Z,6.37
2022-08-25T13:19:09.665Z,3.63
2022-08-25T13:21:54.874Z,5.70
2022-08-25T13:24:40.353Z,4.17
2022-08-25T13:27:24.827Z,5.47
2022-08-25T13:30:03.832Z,4.60
2022-08-25T13:32:43.229Z,3.93
2022-08-25T13:35:22.062Z,4.13
2022-08-25T13:37:55.445Z,5.47
2022-08-25T13:40:35.266Z,3.17
2022-08-25T13:43:13.400Z,5.43
2022-08-25T13:45:50.385Z,4.93
2022-08-25T13:48:49.689Z,3.57
2022-08-25T13:51:34.749Z,6.10
2022-08-25T13:54:13.304Z,2.97
2022-08-25T13:56:53.573Z,5.43
2022-08-25T13:59:34.818Z,4.17
2022-08-25T14:02:19.656Z,3.70
2022-08-25T14:04:58.194Z,3.97
2022-08-25T14:07:35.498Z,3.73
2022-08-25T14:10:16.587Z,5.27
2022-08-25T14:13:11.767Z,4.13
2022-08-25T14:15:52.194Z,2.93
2022-08-25T14:18:38.365Z,3.27
2022-08-25T14:21:16.131Z,8.13
2022-08-25T14:23:52.323Z,6.30
2022-08-25T14:26:27.244Z,5.67
2022-08-25T14:29:04.269Z,4.60
2022-08-25T14:31:45.716Z,4.00
2022-08-25T14:34:25.752Z,7.97
2022-08-25T14:37:03.881Z,5.50
2022-08-25T14:39:38.856Z,6.97
2022-08-25T14:42:27.897Z,7.67
2022-08-25T14:45:04.661Z,7.60
2022-08-25T14:47:46.193Z,5.13
2022-08-25T14:50:35.955Z,6.07
2022-08-25T14:53:10.655Z,7.63
2022-08-25T14:55:48.004Z,6.30
2022-08-25T14:58:25.769Z,5.27
2022-08-25T15:01:05.069Z,9.10
2022-08-25T15:06:33.544Z,6.27
2022-08-25T15:09:14.927Z,6.67
2022-08-25T15:14:47.659Z,7.97
2022-08-25T15:17:44.480Z,6.87
2022-08-25T15:20:20.881Z,7.13
2022-08-25T15:22:56.104Z,6.27
2022-08-25T15:25:33.819Z,6.13
2022-08-25T15:28:11.935Z,6.60
2022-08-25T15:30:55.340Z,6.40
2022-08-25T15:33:31.537Z,7.60
2022-08-25T15:36:24.537Z,3.73
2022-08-25T15:39:06.305Z,4.97
2022-08-25T15:41:40.495Z,6.97
2022-08-25T15:44:32.406Z,4.23
2022-08-25T15:47:06.829Z,5.57
2022-08-25T15:49:49.030Z,5.83
2022-08-25T15:52:28.161Z,4.57
2022-08-25T15:55:02.618Z,8.57
2022-08-25T15:57:43.677Z,3.67
2022-08-25T16:00:25.991Z,7.10
2022-08-25T16:03:01.042Z,4.03
2022-08-25T16:05:37.251Z,3.20
2022-08-25T16:08:19.124Z,6.93
2022-08-25T16:10:54.281Z,3.43
2022-08-25T16:13:30.793Z,6.57
2022-08-25T16:16:08.944Z,4.00
2022-08-25T16:18:45.037Z,6.53
2022-08-25T16:21:29.012Z,4.00
2022-08-25T16:24:08.275Z,4.10
2022-08-25T16:26:48.693Z,4.87
2022-08-25T16:29:24.164Z,4.07
2022-08-25T16:31:59.144Z,7.17
2022-08-25T16:34:44.913Z,2.87
2022-08-25T16:37:22.955Z,5.77
2022-08-25T16:39:59.825Z,3.50
2022-08-25T16:42:35.229Z,4.20
2022-08-25T16:45:10.061Z,4.03
2022-08-25T16:47:45.580Z,5.17
2022-08-25T16:50:20.130Z,8.10
2022-08-25T16:53:15.453Z,5.97
2022-08-25T16:55:50.624Z,5.37
2022-08-25T16:58:26.388Z,6.10
2022-08-25T17:01:09.529Z,3.10
2022-08-25T17:03:45.805Z,3.27
2022-08-25T17:06:21.088Z,5.63
2022-08-25T17:08:57.524Z,3.47
2022-08-25T17:11:33.696Z,6.43
2022-08-25T17:14:11.144Z,5.70
2022-08-25T17:16:45.882Z,5.27
2022-08-25T17:19:22.587Z,4.47
2022-08-25T17:22:00.102Z,6.20
2022-08-25T17:24:35.572Z,5.63
2022-08-25T17:27:09.043Z,4.87
2022-08-25T17:29:45.051Z,7.57
2022-08-25T17:32:20.851Z,4.80
2022-08-25T17:35:04.346Z,7.47
2022-08-25T17:37:37.658Z,4.97
2022-08-25T17:40:15.321Z,7.07
2022-08-25T17:42:48.840Z,7.97
2022-08-25T17:45:25.429Z,3.23
2022-08-25T17:47:59.581Z,4.03
2022-08-25T17:50:34.219Z,8.63
2022-08-25T17:53:08.042Z,7.67
2022-08-25T17:55:46.080Z,6.03
2022-08-25T17:58:21.233Z,6.53
2022-08-25T18:00:55.481Z,8.23
2022-08-25T18:03:29.614Z,9.53
2022-08-25T18:06:03.923Z,7.43
2022-08-25T18:08:37.611Z,10.03
2022-08-25T18:11:13.023Z,10.87
2022-08-25T18:13:46.888Z,10.37
2022-08-25T18:16:20.379Z,10.97
2022-08-25T18:18:54.236Z,10.03
2022-08-25T18:21:30.355Z,10.27
2022-08-25T18:24:06.032Z,10.30
2022-08-25T18:26:46.169Z,13.90
2022-08-25T18:29:19.976Z,13.93
2022-08-25T18:31:57.150Z,11.70
2022-08-25T18:34:33.318Z,9.80
2022-08-25T18:37:22.524Z,10.03
2022-08-25T18:40:13.142Z,10.40
2022-08-25T18:42:49.852Z,9.87
2022-08-25T18:45:24.667Z,9.50
2022-08-25T18:48:00.313Z,8.47
2022-08-25T18:50:37.032Z,10.90
2022-08-25T18:53:11.130Z,13.60
2022-08-25T18:55:46.541Z,11.57
2022-08-25T18:58:23.033Z,15.67
2022-08-25T19:01:06.368Z,18.97
2022-08-25T19:03:40.249Z,16.07
2022-08-25T19:06:14.109Z,16.30
2022-08-25T19:08:47.486Z,19.17
2022-08-25T19:11:22.184Z,14.47
2022-08-25T19:13:58.612Z,19.30
2022-08-25T19:16:41.584Z,16.77
2022-08-25T19:19:16.228Z,13.80
2022-08-25T19:21:50.938Z,10.40
2022-08-25T19:24:25.372Z,15.20
2022-08-25T19:26:58.563Z,16.83
2022-08-25T19:29:37.593Z,13.23
2022-08-25T19:32:11.296Z,16.37
2022-08-25T19:34:51.521Z,14.70
2022-08-25T19:37:26.715Z,15.47
2022-08-25T19:40:01.010Z,16.67
2022-08-25T19:42:38.394Z,19.40
2022-08-25T19:45:18.774Z,22.23
2022-08-25T19:47:52.903Z,18.07
2022-08-25T19:50:27.934Z,15.20
2022-08-25T19:53:01.688Z,52.50
2022-08-25T19:55:36.063Z,45.00
2022-08-25T19:58:09.884Z,42.70
2022-08-25T20:00:49.465Z,24.10
2022-08-25T20:03:24.942Z,25.90
2022-08-25T20:05:58.867Z,21.57
2022-08-25T20:08:34.542Z,21.60
2022-08-25T20:11:08.614Z,16.10
2022-08-25T20:13:42.492Z,19.27
2022-08-25T20:16:19.084Z,17.97
2022-08-25T20:18:53.411Z,16.97
2022-08-25T20:21:28.361Z,17.47
2022-08-25T20:24:20.779Z,19.33
2022-08-25T20:26:54.551Z,19.77
2022-08-25T20:29:29.836Z,19.00
2022-08-25T20:32:04.319Z,20.10
2022-08-25T20:34:38.032Z,20.27
2022-08-25T20:37:13.220Z,19.10
2022-08-25T20:39:47.121Z,20.00
2022-08-25T20:42:21.121Z,18.43
2022-08-25T20:44:55.016Z,18.77
2022-08-25T20:47:30.261Z,17.23
2022-08-25T20:50:06.522Z,16.90
2022-08-25T20:52:42.522Z,18.83
2022-08-25T20:55:19.126Z,18.93
2022-08-25T20:57:53.229Z,21.07
2022-08-25T21:00:27.066Z,21.37
2022-08-25T21:03:06.143Z,23.50
2022-08-25T21:05:44.089Z,22.63
2022-08-25T21:08:17.168Z,23.20
2022-08-25T21:10:52.668Z,23.17
2022-08-25T21:13:26.148Z,23.80
2022-08-25T21:15:59.219Z,26.73
2022-08-25T21:18:38.625Z,23.37
2022-08-25T21:21:18.145Z,27.60
2022-08-25T21:23:54.139Z,23.50
2022-08-25T21:26:28.723Z,26.37
2022-08-25T21:29:04.529Z,31.37
2022-08-25T21:31:39.374Z,27.73
2022-08-25T21:34:16.002Z,24.00
2022-08-25T21:36:52.617Z,22.93
2022-08-25T21:39:28.035Z,23.53
2022-08-25T21:42:02.038Z,29.07
2022-08-25T21:44:35.414Z,27.13
2022-08-25T21:47:12.407Z,28.10
2022-08-25T21:49:47.317Z,24.73
2022-08-25T21:52:22.320Z,26.07
2022-08-25T21:54:58.047Z,29.37
2022-08-25T21:57:32.004Z,26.73
2022-08-25T22:00:06.415Z,28.30
2022-08-25T22:02:44.857Z,30.63
2022-08-25T22:05:20.442Z,30.83
2022-08-25T22:07:54.619Z,29.27
2022-08-25T22:10:32.902Z,33.03
2022-08-25T22:13:07.011Z,32.83
2022-08-25T22:15:40.827Z,31.77
2022-08-25T22:18:14.591Z,31.13
2022-08-25T22:20:49.912Z,34.13
2022-08-25T22:23:23.586Z,36.23
2022-08-25T22:26:01.882Z,39.17
2022-08-25T22:28:38.371Z,36.67
2022-08-25T22:31:20.745Z,37.83
2022-08-25T22:33:55.772Z,40.47
2022-08-25T22:36:36.175Z,36.97
2022-08-25T22:39:12.006Z,39.83
2022-08-25T22:41:46.891Z,31.80
2022-08-25T22:44:20.164Z,33.47
2022-08-25T22:46:54.183Z,31.57
2022-08-25T22:49:27.479Z,28.17
2022-08-25T22:52:03.107Z,29.40
2022-08-25T22:54:36.724Z,25.57
2022-08-25T22:57:10.853Z,31.73
2022-08-25T22:59:44.268Z,28.40
2022-08-25T23:02:17.463Z,29.17
2022-08-25T23:04:55.304Z,26.17
2022-08-25T23:07:31.090Z,27.47
2022-08-25T23:10:08.181Z,25.73
2022-08-25T23:12:43.815Z,26.77
2022-08-25T23:15:19.159Z,29.20
2022-08-25T23:17:52.605Z,27.13
2022-08-25T23:20:45.041Z,29.50
2022-08-25T23:23:24.006Z,23.37
2022-08-25T23:25:58.418Z,23.43
2022-08-25T23:28:32.659Z,23.50
2022-08-25T23:31:11.455Z,24.20
2022-08-25T23:33:45.329Z,23.13
2022-08-25T23:36:22.494Z,21.73
2022-08-25T23:38:59.547Z,22.93
2022-08-25T23:41:33.144Z,20.67
2022-08-25T23:44:11.455Z,24.03
2022-08-25T23:46:47.077Z,21.00
2022-08-25T23:49:22.857Z,19.57
2022-08-25T23:51:58.240Z,18.30
2022-08-25T23:54:33.416Z,20.67
2022-08-25T23:57:07.113Z,16.97
2022-08-25T23:59:43.268Z,24.53
